Latest Weather Observations for Thevenard

IDS60801

Issued at 4:31 pm CST Tuesday 7 July 2015 (issued every 30 minutes, with the page automatically refreshed every 10 minutes)

About weather observations | Map of weather stations | Latest weather observations for SA | Other Formats
Station Details ID: 018200 Name: THEVENARD WIND Lat: -32.18 Lon: 133.63 Height: 8.85 m
Data from the previous 72 hours. | See also: Recent months for locations in South Australia
Date/Time
CST
Temp
°C
App
Temp
°C
Dew
Point
Rel
Hum
%
Delta-T
°C
Wind Press
QNH
hPa
Press
MSL
hPa
Rain
since 9 am
mm
Dir
 
Spd
km/h
Gust
km/h
Spd
kts
Gust
kts
07/04:30pm - - - - - S 7 13 4 7 - - -
07/04:00pm - - - - - S 11 15 6 8 - - -
07/03:30pm - - - - - SSW 6 9 3 5 - - -
07/03:00pm - - - - - NNW 2 2 1 1 - - -
07/02:30pm - - - - - NNW 4 4 2 2 - - -
07/02:00pm - - - - - NW 4 6 2 3 - - -
07/01:30pm - - - - - NNW 4 6 2 3 - - -
07/01:00pm - - - - - NNE 4 6 2 3 - - -
07/12:30pm - - - - - NNE 6 7 3 4 - - -
07/12:00pm - - - - - NNE 6 7 3 4 - - -
07/11:30am - - - - - N 6 7 3 4 - - -
07/11:00am - - - - - N 7 9 4 5 - - -
07/10:30am - - - - - NNE 4 6 2 3 - - -
07/10:00am - - - - - N 7 7 4 4 - - -
07/09:30am - - - - - NNE 6 7 3 4 - - -
07/09:00am - - - - - NNE 7 9 4 5 - - -
07/08:30am - - - - - NNE 7 7 4 4 - - -
07/08:00am - - - - - NNE 7 9 4 5 - - -
07/07:30am - - - - - N 6 7 3 4 - - -
07/07:00am - - - - - N 7 11 4 6 - - -
07/06:30am - - - - - NE 11 11 6 6 - - -
07/06:00am - - - - - NNE 7 7 4 4 - - -
07/05:30am - - - - - NNE 11 11 6 6 - - -
07/05:00am - - - - - NNE 9 11 5 6 - - -
07/04:30am - - - - - E 4 4 2 2 - - -
07/04:00am - - - - - S 4 4 2 2 - - -
07/03:30am - - - - - S 6 6 3 3 - - -
07/03:00am - - - - - SSE 9 13 5 7 - - -
07/02:30am - - - - - SSE 15 19 8 10 - - -
07/02:00am - - - - - SSE 19 20 10 11 - - -
07/01:30am - - - - - SSE 19 28 10 15 - - -
07/01:00am - - - - - S 13 15 7 8 - - -
07/12:30am - - - - - SSW 9 13 5 7 - - -
07/12:00am - - - - - SSE 11 17 6 9 - - -
 
Date/Time
CST
Temp
°C
App
Temp
°C
Dew
Point
Rel
Hum
%
Delta-T
°C
Wind Press
QNH
hPa
Press
MSL
hPa
Rain
since 9 am
mm
Dir
 
Spd
km/h
Gust
km/h
Spd
kts
Gust
kts
06/11:30pm - - - - - S 17 20 9 11 - - -
06/11:00pm - - - - - SE 4 9 2 5 - - -
06/10:30pm - - - - - S 4 7 2 4 - - -
06/10:00pm - - - - - SSE 9 11 5 6 - - -
06/09:30pm - - - - - S 11 15 6 8 - - -
06/09:00pm - - - - - SSW 17 19 9 10 - - -
06/08:30pm - - - - - SW 9 11 5 6 - - -
06/08:00pm - - - - - SSW 13 19 7 10 - - -
06/07:30pm - - - - - WSW 7 11 4 6 - - -
06/07:00pm - - - - - WNW 9 11 5 6 - - -
06/06:30pm - - - - - W 9 11 5 6 - - -
06/06:00pm - - - - - WSW 13 17 7 9 - - -
06/05:30pm - - - - - WSW 13 15 7 8 - - -
06/05:00pm - - - - - WSW 19 22 10 12 - - -
06/04:30pm - - - - - SW 15 19 8 10 - - -
06/04:00pm - - - - - SW 17 22 9 12 - - -
06/03:30pm - - - - - SSW 13 19 7 10 - - -
06/03:00pm - - - - - SSW 9 11 5 6 - - -
06/02:30pm - - - - - SSW 20 24 11 13 - - -
06/02:00pm - - - - - SW 13 17 7 9 - - -
06/01:30pm - - - - - WSW 13 15 7 8 - - -
06/01:00pm - - - - - SW 15 19 8 10 - - -
06/12:30pm - - - - - SW 15 17 8 9 - - -
06/12:00pm - - - - - WSW 11 13 6 7 - - -
06/11:30am - - - - - WSW 11 11 6 6 - - -
06/11:00am - - - - - SW 9 11 5 6 - - -
06/10:30am - - - - - SSW 13 15 7 8 - - -
06/10:00am - - - - - SSW 15 17 8 9 - - -
06/09:30am - - - - - SSW 15 17 8 9 - - -
06/09:00am - - - - - SSW 17 19 9 10 - - -
06/08:30am - - - - - SSW 11 15 6 8 - - -
06/08:00am - - - - - SSW 17 20 9 11 - - -
06/07:30am - - - - - SSW 19 22 10 12 - - -
06/07:00am - - - - - SSW 20 24 11 13 - - -
06/06:30am - - - - - SW 17 19 9 10 - - -
06/06:00am - - - - - SSW 17 22 9 12 - - -
06/05:30am - - - - - SSW 22 26 12 14 - - -
06/05:00am - - - - - SSW 17 19 9 10 - - -
06/04:30am - - - - - SSW 22 26 12 14 - - -
06/04:00am - - - - - SW 11 17 6 9 - - -
06/03:30am - - - - - WSW 15 19 8 10 - - -
06/03:00am - - - - - W 15 20 8 11 - - -
06/02:30am - - - - - W 13 17 7 9 - - -
06/02:00am - - - - - WNW 13 17 7 9 - - -
06/01:30am - - - - - W 13 15 7 8 - - -
06/01:00am - - - - - W 15 17 8 9 - - -
06/12:30am - - - - - W 13 17 7 9 - - -
06/12:00am - - - - - W 13 15 7 8 - - -
 
Date/Time
CST
Temp
°C
App
Temp
°C
Dew
Point
Rel
Hum
%
Delta-T
°C
Wind Press
QNH
hPa
Press
MSL
hPa
Rain
since 9 am
mm
Dir
 
Spd
km/h
Gust
km/h
Spd
kts
Gust
kts
05/11:30pm - - - - - W 11 13 6 7 - - -
05/11:00pm - - - - - WNW 11 11 6 6 - - -
05/10:30pm - - - - - WNW 13 15 7 8 - - -
05/10:00pm - - - - - NW 11 11 6 6 - - -
05/09:30pm - - - - - NW 11 11 6 6 - - -
05/09:00pm - - - - - NW 9 11 5 6 - - -
05/08:30pm - - - - - NW 7 9 4 5 - - -
05/08:00pm - - - - - NNW 6 7 3 4 - - -
05/07:30pm - - - - - NE 7 7 4 4 - - -
05/07:00pm - - - - - ENE 7 7 4 4 - - -
05/06:30pm - - - - - ESE 6 6 3 3 - - -
05/06:00pm - - - - - E 9 11 5 6 - - -
05/05:30pm - - - - - ESE 6 7 3 4 - - -
05/05:00pm - - - - - S 11 13 6 7 - - -
05/04:30pm - - - - - S 17 24 9 13 - - -
05/04:00pm - - - - - S 13 17 7 9 - - -
05/03:30pm - - - - - WSW 4 6 2 3 - - -
05/03:00pm - - - - - NNW 9 13 5 7 - - -
05/02:30pm - - - - - NNW 15 17 8 9 - - -
05/02:00pm - - - - - NNW 13 17 7 9 - - -
05/01:30pm - - - - - NNW 17 20 9 11 - - -
05/01:00pm - - - - - NNW 20 24 11 13 - - -
05/12:30pm - - - - - NW 19 22 10 12 - - -
05/12:00pm - - - - - NNW 15 19 8 10 - - -
05/11:30am - - - - - N 19 20 10 11 - - -
05/11:00am - - - - - N 20 24 11 13 - - -
05/10:30am - - - - - N 22 26 12 14 - - -
05/10:00am - - - - - N 24 30 13 16 - - -
05/09:30am - - - - - N 28 33 15 18 - - -
05/09:00am - - - - - N 32 37 17 20 - - -
05/08:30am - - - - - N 30 35 16 19 - - -
05/08:00am - - - - - N 28 33 15 18 - - -
05/07:30am - - - - - NNE 28 33 15 18 - - -
05/07:00am - - - - - NNE 28 33 15 18 - - -
05/06:30am - - - - - N 26 32 14 17 - - -
05/06:00am - - - - - N 28 33 15 18 - - -
05/05:30am - - - - - N 26 32 14 17 - - -
05/05:00am - - - - - NNE 26 30 14 16 - - -
05/04:30am - - - - - N 24 30 13 16 - - -
05/04:00am - - - - - N 20 26 11 14 - - -
05/03:30am - - - - - N 22 24 12 13 - - -
05/03:00am - - - - - N 19 22 10 12 - - -
05/02:30am - - - - - NNE 19 20 10 11 - - -
05/02:00am - - - - - NNE 20 22 11 12 - - -
05/01:30am - - - - - NNE 22 24 12 13 - - -
05/01:00am - - - - - NNE 24 26 13 14 - - -
05/12:30am - - - - - NNE 24 28 13 15 - - -
05/12:00am - - - - - NNE 24 28 13 15 - - -
 
Date/Time
CST
Temp
°C
App
Temp
°C
Dew
Point
Rel
Hum
%
Delta-T
°C
Wind Press
QNH
hPa
Press
MSL
hPa
Rain
since 9 am
mm
Dir
 
Spd
km/h
Gust
km/h
Spd
kts
Gust
kts
04/11:30pm - - - - - NNE 22 26 12 14 - - -
04/11:00pm - - - - - NNE 20 24 11 13 - - -
04/10:30pm - - - - - NE 9 13 5 7 - - -
04/10:00pm - - - - - NE 11 15 6 8 - - -
04/09:30pm - - - - - NE 13 15 7 8 - - -
04/09:00pm - - - - - NE 15 19 8 10 - - -
04/08:30pm - - - - - ENE 13 15 7 8 - - -
04/08:00pm - - - - - NE 11 13 6 7 - - -
04/07:30pm - - - - - ENE 11 13 6 7 - - -
04/07:00pm - - - - - E 15 15 8 8 - - -
04/06:30pm - - - - - E 13 13 7 7 - - -
04/06:00pm - - - - - SE 9 11 5 6 - - -
04/05:30pm - - - - - SSE 9 11 5 6 - - -
04/05:00pm - - - - - SSE 9 9 5 5 - - -

Other Formats:

Comma delimited format used in spreadsheet applications
http://www.bom.gov.au/fwo/IDS60801/IDS60801.95653.axf

JavaScript Object Notation format (JSON) in row-major order
http://www.bom.gov.au/fwo/IDS60801/IDS60801.95653.json